createdAt,value
2023-05-13T00:01:39.065Z,12.07
2023-05-13T00:04:09.054Z,12.10
2023-05-13T00:06:38.493Z,12.15
2023-05-13T00:09:07.558Z,12.15
2023-05-13T00:11:36.725Z,12.09
2023-05-13T00:14:07.136Z,12.03
2023-05-13T00:16:36.519Z,12.04
2023-05-13T00:19:05.772Z,11.93
2023-05-13T00:21:35.063Z,11.85
2023-05-13T00:24:04.601Z,11.75
2023-05-13T00:26:33.900Z,11.72
2023-05-13T00:29:03.366Z,11.69
2023-05-13T00:31:32.738Z,11.70
2023-05-13T00:34:02.044Z,11.69
2023-05-13T00:36:31.349Z,11.71
2023-05-13T00:39:01.028Z,11.74
2023-05-13T00:41:30.366Z,11.62
2023-05-13T00:44:00.281Z,11.48
2023-05-13T00:46:33.471Z,11.38
2023-05-13T00:49:03.072Z,11.37
2023-05-13T00:51:33.101Z,11.39
2023-05-13T00:54:02.053Z,11.35
2023-05-13T00:56:31.137Z,11.30
2023-05-13T00:59:00.171Z,11.29
2023-05-13T01:01:56.746Z,11.27
2023-05-13T01:04:43.121Z,11.22
2023-05-13T01:07:36.707Z,11.18
2023-05-13T01:10:37.013Z,11.17
2023-05-13T01:13:14.842Z,11.09
2023-05-13T01:15:50.635Z,10.99
2023-05-13T01:18:45.634Z,10.96
2023-05-13T01:21:15.634Z,11.06
2023-05-13T01:23:45.356Z,11.14
2023-05-13T01:26:14.506Z,11.08
2023-05-13T01:28:43.472Z,11.04
2023-05-13T01:31:14.439Z,11.03
2023-05-13T01:33:44.432Z,11.04
2023-05-13T01:36:14.325Z,11.04
2023-05-13T01:38:44.293Z,11.05
2023-05-13T01:41:13.597Z,11.03
2023-05-13T01:43:42.939Z,11.06
2023-05-13T01:46:16.249Z,11.07
2023-05-13T01:48:45.623Z,10.98
2023-05-13T01:51:15.008Z,10.90
2023-05-13T01:53:44.195Z,10.82
2023-05-13T01:56:13.355Z,10.85
2023-05-13T01:58:42.521Z,10.87
2023-05-13T02:01:11.742Z,10.82
2023-05-13T02:03:40.989Z,10.77
2023-05-13T02:06:10.073Z,10.80
2023-05-13T02:08:39.248Z,10.80
2023-05-13T02:11:08.549Z,10.74
2023-05-13T02:13:37.418Z,10.76
2023-05-13T02:16:06.955Z,10.77
2023-05-13T02:18:35.871Z,10.75
2023-05-13T02:21:04.928Z,10.69
2023-05-13T02:23:33.759Z,10.64
2023-05-13T02:26:02.694Z,10.64
2023-05-13T02:28:31.697Z,10.65
2023-05-13T02:31:01.000Z,10.64
2023-05-13T02:33:30.075Z,10.60
2023-05-13T02:35:58.714Z,10.61
2023-05-13T02:38:27.597Z,10.66
2023-05-13T02:40:56.699Z,10.71
2023-05-13T02:43:27.918Z,10.68
2023-05-13T02:45:57.804Z,10.64
2023-05-13T02:48:26.714Z,10.67
2023-05-13T02:50:55.441Z,10.73
2023-05-13T02:53:24.956Z,10.85
2023-05-13T02:55:55.033Z,10.79
2023-05-13T02:58:24.355Z,10.85
2023-05-13T03:00:53.854Z,10.90
2023-05-13T03:03:23.161Z,10.87
2023-05-13T03:05:52.372Z,10.74
2023-05-13T03:08:21.588Z,10.66
2023-05-13T03:10:52.108Z,10.63
2023-05-13T03:13:21.034Z,10.61
2023-05-13T03:15:50.206Z,10.59
2023-05-13T03:18:19.296Z,10.49
2023-05-13T03:20:48.772Z,10.43
2023-05-13T03:23:18.091Z,10.38
2023-05-13T03:25:47.163Z,10.34
2023-05-13T03:28:16.568Z,10.26
2023-05-13T03:30:45.833Z,10.27
2023-05-13T03:33:14.602Z,10.36
2023-05-13T03:35:44.468Z,10.42
2023-05-13T03:38:13.731Z,10.42
2023-05-13T03:40:42.839Z,10.42
2023-05-13T03:43:12.207Z,10.45
2023-05-13T03:45:41.445Z,10.49
2023-05-13T03:48:10.705Z,10.46
2023-05-13T03:50:40.135Z,10.39
2023-05-13T03:53:11.860Z,10.32
2023-05-13T03:55:40.596Z,10.29
2023-05-13T03:58:15.070Z,10.27
2023-05-13T04:00:47.132Z,10.25
2023-05-13T04:03:17.823Z,10.23
2023-05-13T04:05:47.852Z,10.22
2023-05-13T04:08:16.902Z,10.23
2023-05-13T04:10:46.124Z,10.22
2023-05-13T04:13:15.138Z,10.17
2023-05-13T04:15:44.296Z,10.17
2023-05-13T04:18:13.565Z,10.15
2023-05-13T04:20:42.906Z,10.12
2023-05-13T04:23:11.900Z,10.05
2023-05-13T04:25:41.660Z,10.03
2023-05-13T04:28:10.813Z,10.08
2023-05-13T04:30:39.961Z,10.16
2023-05-13T04:33:09.147Z,10.23
2023-05-13T04:35:38.707Z,10.35
2023-05-13T04:38:08.582Z,10.54
2023-05-13T04:40:38.048Z,10.69
2023-05-13T04:43:07.294Z,10.80
2023-05-13T04:45:37.457Z,10.85
2023-05-13T04:48:06.784Z,10.96
2023-05-13T04:50:36.019Z,11.12
2023-05-13T04:53:05.387Z,11.28
2023-05-13T04:55:35.435Z,11.43
2023-05-13T04:58:04.318Z,11.53
2023-05-13T05:00:33.673Z,11.65
2023-05-13T05:03:02.886Z,11.75
2023-05-13T05:05:32.358Z,11.74
2023-05-13T05:08:01.212Z,11.69
2023-05-13T05:10:30.369Z,11.67
2023-05-13T05:12:59.568Z,11.71
2023-05-13T05:15:30.525Z,11.81
2023-05-13T05:17:59.978Z,11.88
2023-05-13T05:20:29.056Z,11.98
2023-05-13T05:22:57.952Z,12.31
2023-05-13T05:25:27.174Z,12.69
2023-05-13T05:27:57.956Z,12.95
2023-05-13T05:30:27.658Z,13.05
2023-05-13T05:32:57.085Z,13.12
2023-05-13T05:35:26.692Z,13.20
2023-05-13T05:37:56.014Z,13.29
2023-05-13T05:40:24.770Z,13.26
2023-05-13T05:42:53.732Z,13.29
2023-05-13T05:45:23.569Z,13.39
2023-05-13T05:47:55.305Z,13.64
2023-05-13T05:50:25.503Z,13.95
2023-05-13T05:52:54.240Z,14.15
2023-05-13T05:55:23.592Z,14.24
2023-05-13T05:57:52.535Z,14.30
2023-05-13T06:00:21.773Z,14.27
2023-05-13T06:02:51.438Z,14.44
2023-05-13T06:05:20.756Z,14.51
2023-05-13T06:07:50.279Z,14.56
2023-05-13T06:10:19.836Z,14.67
2023-05-13T06:12:49.264Z,14.78
2023-05-13T06:15:18.586Z,14.96
2023-05-13T06:17:47.698Z,15.17
2023-05-13T06:20:16.762Z,15.46
2023-05-13T06:22:45.759Z,15.71
2023-05-13T06:25:15.624Z,15.88
2023-05-13T06:27:44.707Z,15.94
2023-05-13T06:30:13.718Z,15.95
2023-05-13T06:32:53.446Z,15.95
2023-05-13T06:35:26.864Z,15.97
2023-05-13T06:37:56.310Z,16.13
2023-05-13T06:40:25.973Z,16.24
2023-05-13T06:42:55.197Z,16.32
2023-05-13T06:45:26.199Z,16.43
2023-05-13T06:47:55.190Z,16.50
2023-05-13T06:50:24.362Z,16.60
2023-05-13T06:52:53.840Z,16.74
2023-05-13T06:55:23.000Z,16.87
2023-05-13T06:57:52.160Z,16.97
2023-05-13T07:00:21.808Z,17.01
2023-05-13T07:02:52.307Z,16.94
2023-05-13T07:05:21.918Z,16.93
2023-05-13T07:07:54.217Z,16.90
2023-05-13T07:10:24.054Z,16.97
2023-05-13T07:12:53.490Z,17.09
2023-05-13T07:15:22.529Z,17.28
2023-05-13T07:17:51.847Z,17.68
2023-05-13T07:20:24.148Z,17.89
2023-05-13T07:22:53.467Z,18.05
2023-05-13T07:25:23.649Z,18.21
2023-05-13T07:27:52.852Z,18.36
2023-05-13T07:30:22.647Z,18.49
2023-05-13T07:32:54.414Z,18.66
2023-05-13T07:35:23.823Z,18.88
2023-05-13T07:37:54.531Z,19.03
2023-05-13T07:40:24.586Z,19.11
2023-05-13T07:42:54.202Z,19.16
2023-05-13T07:45:24.043Z,19.28
2023-05-13T07:47:53.563Z,19.46
2023-05-13T07:50:23.467Z,19.89
2023-05-13T07:52:52.962Z,20.60
2023-05-13T07:55:22.815Z,21.35
2023-05-13T07:57:52.337Z,21.66
2023-05-13T08:00:22.101Z,21.75
2023-05-13T08:02:51.113Z,21.77
2023-05-13T08:05:20.850Z,21.80
2023-05-13T08:07:50.362Z,21.85
2023-05-13T08:10:19.742Z,22.07
2023-05-13T08:12:54.567Z,22.30
2023-05-13T08:15:27.697Z,22.68
2023-05-13T08:17:57.127Z,23.05
2023-05-13T08:20:30.935Z,23.29
2023-05-13T08:23:02.558Z,23.45
2023-05-13T08:25:32.321Z,23.42
2023-05-13T08:28:03.820Z,23.38
2023-05-13T08:30:34.048Z,23.21
2023-05-13T08:33:03.795Z,22.97
2023-05-13T08:35:33.455Z,22.72
2023-05-13T08:38:05.759Z,22.37
2023-05-13T08:40:35.371Z,22.10
2023-05-13T08:43:07.034Z,21.89
2023-05-13T08:45:40.249Z,21.87
2023-05-13T08:48:11.988Z,22.07
2023-05-13T08:50:42.334Z,22.23
2023-05-13T08:53:13.753Z,22.25
2023-05-13T08:55:44.428Z,22.37
2023-05-13T08:58:14.131Z,22.59
2023-05-13T09:00:43.761Z,22.81
2023-05-13T09:03:14.689Z,22.88
2023-05-13T09:05:44.852Z,22.84
2023-05-13T09:08:14.459Z,22.89
2023-05-13T09:10:43.998Z,22.89
2023-05-13T09:13:14.938Z,22.79
2023-05-13T09:15:45.089Z,22.78
2023-05-13T09:18:18.860Z,22.92
2023-05-13T09:20:55.915Z,22.89
2023-05-13T09:23:27.848Z,22.96
2023-05-13T09:25:58.651Z,23.16
2023-05-13T09:28:27.526Z,23.41
2023-05-13T09:30:57.445Z,23.62
2023-05-13T09:33:33.062Z,23.84
2023-05-13T09:36:06.393Z,24.00
2023-05-13T09:38:39.590Z,24.09
2023-05-13T09:41:11.866Z,24.16
2023-05-13T09:43:41.787Z,24.12
2023-05-13T09:46:12.407Z,24.03
2023-05-13T09:48:44.122Z,23.78
2023-05-13T09:51:17.248Z,23.47
2023-05-13T09:53:48.592Z,23.04
2023-05-13T09:56:22.804Z,22.74
2023-05-13T09:58:53.466Z,22.51
2023-05-13T10:01:22.999Z,22.36
2023-05-13T10:03:52.924Z,22.25
2023-05-13T10:06:25.055Z,22.16
2023-05-13T10:08:58.646Z,22.02
2023-05-13T10:11:30.949Z,21.87
2023-05-13T10:14:06.059Z,21.75
2023-05-13T10:16:36.247Z,21.72
2023-05-13T10:19:06.834Z,21.80
2023-05-13T10:21:37.553Z,21.82
2023-05-13T10:24:08.435Z,21.93
2023-05-13T10:26:38.442Z,22.13
2023-05-13T10:29:07.666Z,22.38
2023-05-13T10:31:37.626Z,22.65
2023-05-13T10:34:07.270Z,22.93
2023-05-13T10:37:02.994Z,23.19
2023-05-13T10:39:50.804Z,23.34
2023-05-13T10:42:22.853Z,23.63
2023-05-13T10:45:02.071Z,23.95
2023-05-13T10:47:34.648Z,24.34
2023-05-13T10:50:08.408Z,24.73
2023-05-13T10:52:47.682Z,25.09
2023-05-13T10:55:20.296Z,25.30
2023-05-13T10:58:10.024Z,25.38
2023-05-13T11:00:42.213Z,25.43
2023-05-13T11:03:12.812Z,25.42
2023-05-13T11:05:48.021Z,25.43
2023-05-13T11:08:56.322Z,25.26
2023-05-13T11:11:30.142Z,25.03
2023-05-13T11:14:09.320Z,25.05
2023-05-13T11:16:39.642Z,25.08
2023-05-13T11:19:19.187Z,25.12
2023-05-13T11:21:56.178Z,25.14
2023-05-13T11:24:27.085Z,25.45
2023-05-13T11:26:59.749Z,25.86
2023-05-13T11:29:34.232Z,26.24
2023-05-13T11:32:06.603Z,26.44
2023-05-13T11:34:36.592Z,26.39
2023-05-13T11:37:06.357Z,26.37
2023-05-13T11:39:36.775Z,26.14
2023-05-13T11:42:12.509Z,25.82
2023-05-13T11:44:49.094Z,25.57
2023-05-13T11:47:30.091Z,25.46
2023-05-13T11:49:59.954Z,25.17
2023-05-13T11:52:29.974Z,24.95
2023-05-13T11:55:00.102Z,24.90
2023-05-13T11:57:35.277Z,24.94
2023-05-13T12:00:08.159Z,24.78
2023-05-13T12:02:40.891Z,24.74
2023-05-13T12:05:12.169Z,24.57
2023-05-13T12:07:42.193Z,24.30
2023-05-13T12:10:11.509Z,24.15
2023-05-13T12:12:46.588Z,24.02
2023-05-13T12:15:21.890Z,23.93
2023-05-13T12:17:55.178Z,23.85
2023-05-13T12:20:28.454Z,23.97
2023-05-13T12:23:04.483Z,24.04
2023-05-13T12:25:47.421Z,24.07
2023-05-13T12:28:19.134Z,23.77
2023-05-13T12:31:01.525Z,23.61
2023-05-13T12:33:42.469Z,23.47
2023-05-13T12:36:39.079Z,23.33
2023-05-13T12:39:11.104Z,23.13
2023-05-13T12:41:43.162Z,22.77
2023-05-13T12:44:16.057Z,22.55
2023-05-13T12:46:53.803Z,22.50
2023-05-13T12:49:23.988Z,22.48
2023-05-13T12:51:53.748Z,22.55
2023-05-13T12:54:23.400Z,22.58
2023-05-13T12:56:54.074Z,22.68
2023-05-13T12:59:23.356Z,22.93
2023-05-13T13:01:53.258Z,23.17
2023-05-13T13:04:23.973Z,23.40
2023-05-13T13:06:53.307Z,23.61
2023-05-13T13:09:23.821Z,23.83
2023-05-13T13:11:53.464Z,24.07
2023-05-13T13:14:26.639Z,24.11
2023-05-13T13:16:55.849Z,24.10
2023-05-13T13:19:25.572Z,24.07
2023-05-13T13:21:55.165Z,24.10
2023-05-13T13:24:24.558Z,24.11
2023-05-13T13:26:54.995Z,24.04
2023-05-13T13:29:25.463Z,23.88
2023-05-13T13:31:54.836Z,23.73
2023-05-13T13:34:24.557Z,23.50
2023-05-13T13:36:56.877Z,23.34
2023-05-13T13:39:28.652Z,23.22
2023-05-13T13:41:58.768Z,23.06
2023-05-13T13:44:29.128Z,22.99
2023-05-13T13:46:59.940Z,22.96
2023-05-13T13:49:29.200Z,22.88
2023-05-13T13:51:58.325Z,22.77
2023-05-13T13:54:27.573Z,22.67
2023-05-13T13:56:57.119Z,22.53
2023-05-13T13:59:26.258Z,22.57
2023-05-13T14:01:57.469Z,22.83
2023-05-13T14:04:28.650Z,23.06
2023-05-13T14:06:58.156Z,23.11
2023-05-13T14:09:28.201Z,23.10
2023-05-13T14:11:57.577Z,23.05
2023-05-13T14:14:27.061Z,22.88
2023-05-13T14:16:57.539Z,22.73
2023-05-13T14:19:30.573Z,22.63
2023-05-13T14:22:01.740Z,22.58
2023-05-13T14:24:31.990Z,22.47
2023-05-13T14:27:02.145Z,22.33
2023-05-13T14:29:33.191Z,22.21
2023-05-13T14:32:04.675Z,22.07
2023-05-13T14:34:35.953Z,22.08
2023-05-13T14:37:06.703Z,22.17
2023-05-13T14:39:36.474Z,22.20
2023-05-13T14:42:06.817Z,22.30
2023-05-13T14:44:37.297Z,22.56
2023-05-13T14:47:07.754Z,22.58
2023-05-13T14:49:37.240Z,22.65
2023-05-13T14:52:06.826Z,22.75
2023-05-13T14:54:38.712Z,22.76
2023-05-13T14:57:08.234Z,22.79
2023-05-13T14:59:38.529Z,22.89
2023-05-13T15:02:07.670Z,22.90
2023-05-13T15:04:37.014Z,22.89
2023-05-13T15:07:07.726Z,22.88
2023-05-13T15:09:36.844Z,22.87
2023-05-13T15:12:06.650Z,22.79
2023-05-13T15:14:35.956Z,22.79
2023-05-13T15:17:06.537Z,22.88
2023-05-13T15:19:36.473Z,22.96
2023-05-13T15:22:06.194Z,22.87
2023-05-13T15:24:35.780Z,22.73
2023-05-13T15:27:05.130Z,22.66
2023-05-13T15:29:34.413Z,22.83
2023-05-13T15:32:04.179Z,22.98
2023-05-13T15:34:33.863Z,22.93
2023-05-13T15:37:03.402Z,22.83
2023-05-13T15:39:32.653Z,22.73
2023-05-13T15:42:02.561Z,22.71
2023-05-13T15:44:32.517Z,22.63
2023-05-13T15:47:05.227Z,22.52
2023-05-13T15:49:35.106Z,22.42
2023-05-13T15:52:07.099Z,22.40
2023-05-13T15:54:36.610Z,22.30
2023-05-13T15:57:05.834Z,22.20
2023-05-13T15:59:36.405Z,22.05
2023-05-13T16:02:05.825Z,21.91
2023-05-13T16:04:35.241Z,21.68
2023-05-13T16:07:04.672Z,21.55
2023-05-13T16:09:34.257Z,21.48
2023-05-13T16:12:04.041Z,21.41
2023-05-13T16:14:33.595Z,21.28
2023-05-13T16:17:03.681Z,21.12
2023-05-13T16:19:33.774Z,20.95
2023-05-13T16:22:27.674Z,20.75
2023-05-13T16:25:01.439Z,20.50
2023-05-13T16:27:31.187Z,20.36
2023-05-13T16:30:01.641Z,20.26
2023-05-13T16:32:33.911Z,20.24
2023-05-13T16:35:05.228Z,20.20
2023-05-13T16:37:36.211Z,20.19
2023-05-13T16:40:05.982Z,20.17
2023-05-13T16:42:35.964Z,20.15
2023-05-13T16:45:06.926Z,20.07
2023-05-13T16:47:36.244Z,20.00
2023-05-13T16:50:06.588Z,19.95
2023-05-13T16:52:35.992Z,19.91
2023-05-13T16:55:06.024Z,19.84
2023-05-13T16:57:35.099Z,19.77
2023-05-13T17:00:04.894Z,19.73
2023-05-13T17:02:35.068Z,19.63
2023-05-13T17:05:05.167Z,19.53
2023-05-13T17:07:34.407Z,19.41
2023-05-13T17:10:03.633Z,19.27
2023-05-13T17:12:33.839Z,19.15
2023-05-13T17:15:04.925Z,19.02
2023-05-13T17:17:34.790Z,18.92
2023-05-13T17:20:06.376Z,18.86
2023-05-13T17:22:38.237Z,18.79
2023-05-13T17:25:08.725Z,18.71
2023-05-13T17:27:39.323Z,18.63
2023-05-13T17:30:09.850Z,18.53
2023-05-13T17:32:40.612Z,18.41
2023-05-13T17:35:11.035Z,18.30
2023-05-13T17:37:41.730Z,18.21
2023-05-13T17:40:11.713Z,18.13
2023-05-13T17:42:41.503Z,18.06
2023-05-13T17:45:11.049Z,18.00
2023-05-13T17:47:41.287Z,17.97
2023-05-13T17:50:11.484Z,17.96
2023-05-13T17:52:42.026Z,17.93
2023-05-13T17:55:11.879Z,17.90
2023-05-13T17:57:41.617Z,17.84
2023-05-13T18:00:12.504Z,17.82
2023-05-13T18:02:43.109Z,17.85
2023-05-13T18:05:12.399Z,17.83
2023-05-13T18:07:41.844Z,17.76
2023-05-13T18:10:11.177Z,17.71
2023-05-13T18:12:40.435Z,17.68
2023-05-13T18:15:09.846Z,17.62
2023-05-13T18:17:39.716Z,17.52
2023-05-13T18:20:09.534Z,17.42
2023-05-13T18:22:39.411Z,17.38
2023-05-13T18:25:10.334Z,17.37
2023-05-13T18:27:39.730Z,17.33
2023-05-13T18:30:10.369Z,17.24
2023-05-13T18:32:39.943Z,17.15
2023-05-13T18:35:10.070Z,17.11
2023-05-13T18:37:40.310Z,17.08
2023-05-13T18:40:10.254Z,16.98
2023-05-13T18:42:40.630Z,16.89
2023-05-13T18:45:11.278Z,16.87
2023-05-13T18:47:41.491Z,16.84
2023-05-13T18:50:12.319Z,16.80
2023-05-13T18:52:42.641Z,16.78
2023-05-13T18:55:12.331Z,16.83
2023-05-13T18:57:41.875Z,16.88
2023-05-13T19:00:11.850Z,16.87
2023-05-13T19:02:42.327Z,16.81
2023-05-13T19:05:12.333Z,16.77
2023-05-13T19:07:44.621Z,16.76
2023-05-13T19:10:14.151Z,16.75
2023-05-13T19:12:44.473Z,16.72
2023-05-13T19:15:14.768Z,16.74
2023-05-13T19:17:44.962Z,16.76
2023-05-13T19:20:15.275Z,16.78
2023-05-13T19:22:46.814Z,16.77
2023-05-13T19:25:16.827Z,16.74
2023-05-13T19:27:49.120Z,16.75
2023-05-13T19:30:19.759Z,16.80
2023-05-13T19:32:50.986Z,16.80
2023-05-13T19:35:20.976Z,16.74
2023-05-13T19:37:51.535Z,16.69
2023-05-13T19:40:21.110Z,16.70
2023-05-13T19:42:51.034Z,16.70
2023-05-13T19:45:21.866Z,16.68
2023-05-13T19:47:52.896Z,16.64
2023-05-13T19:50:23.178Z,16.63
2023-05-13T19:52:54.518Z,16.63
2023-05-13T19:55:24.638Z,16.57
2023-05-13T19:57:55.729Z,16.54
2023-05-13T20:00:25.178Z,16.48
2023-05-13T20:02:55.236Z,16.55
2023-05-13T20:05:24.581Z,16.56
2023-05-13T20:07:53.998Z,16.51
2023-05-13T20:10:23.975Z,16.47
2023-05-13T20:12:54.458Z,16.49
2023-05-13T20:15:24.624Z,16.49
2023-05-13T20:17:54.680Z,16.41
2023-05-13T20:20:25.609Z,16.35
2023-05-13T20:22:56.314Z,16.29
2023-05-13T20:25:26.656Z,16.31
2023-05-13T20:27:56.279Z,16.32
2023-05-13T20:30:26.264Z,16.32
2023-05-13T20:32:56.364Z,16.32
2023-05-13T20:35:28.085Z,16.36
2023-05-13T20:37:59.260Z,16.33
2023-05-13T20:40:28.739Z,16.33
2023-05-13T20:43:02.440Z,16.34
2023-05-13T20:45:32.352Z,16.35
2023-05-13T20:48:03.349Z,16.31
2023-05-13T20:50:34.173Z,16.23
2023-05-13T20:53:03.755Z,16.19
2023-05-13T20:55:34.540Z,16.17
2023-05-13T20:58:03.816Z,16.18
2023-05-13T21:00:33.456Z,16.21
2023-05-13T21:03:03.090Z,16.25
2023-05-13T21:05:33.171Z,16.30
2023-05-13T21:08:02.433Z,16.36
2023-05-13T21:10:31.744Z,16.38
2023-05-13T21:13:01.716Z,16.29
2023-05-13T21:15:31.076Z,16.22
2023-05-13T21:18:01.525Z,16.22
2023-05-13T21:20:33.017Z,16.18
2023-05-13T21:23:02.960Z,16.13
2023-05-13T21:25:32.947Z,16.06
2023-05-13T21:28:04.082Z,16.06
2023-05-13T21:30:33.590Z,16.08
2023-05-13T21:33:05.412Z,16.10
2023-05-13T21:35:35.983Z,16.03
2023-05-13T21:38:12.052Z,15.99
2023-05-13T21:40:43.791Z,15.99
2023-05-13T21:43:12.827Z,16.03
2023-05-13T21:45:42.176Z,16.07
2023-05-13T21:48:11.391Z,16.00
2023-05-13T21:50:40.748Z,15.99
2023-05-13T21:53:11.390Z,16.02
2023-05-13T21:55:41.548Z,16.07
2023-05-13T21:58:10.950Z,16.06
2023-05-13T22:00:40.927Z,15.99
2023-05-13T22:03:10.356Z,15.99
2023-05-13T22:05:44.746Z,16.03
2023-05-13T22:08:15.069Z,16.00
2023-05-13T22:10:44.742Z,15.96
2023-05-13T22:13:14.112Z,15.96
2023-05-13T22:15:44.315Z,15.99
2023-05-13T22:18:15.487Z,15.99
2023-05-13T22:20:45.505Z,15.95
2023-05-13T22:23:15.394Z,15.92
2023-05-13T22:25:45.839Z,15.95
2023-05-13T22:28:15.388Z,15.98
2023-05-13T22:30:47.602Z,15.96
2023-05-13T22:33:17.280Z,15.89
2023-05-13T22:35:47.319Z,15.91
2023-05-13T22:38:17.395Z,15.94
2023-05-13T22:40:47.622Z,16.00
2023-05-13T22:43:16.783Z,16.02
2023-05-13T22:45:46.367Z,16.06
2023-05-13T22:48:15.749Z,16.11
2023-05-13T22:50:44.900Z,16.14
2023-05-13T22:53:14.051Z,16.18
2023-05-13T22:55:43.147Z,16.18
2023-05-13T22:58:12.425Z,16.23
2023-05-13T23:00:41.733Z,16.30
2023-05-13T23:03:10.891Z,16.30
2023-05-13T23:05:40.259Z,16.19
2023-05-13T23:08:09.343Z,16.07
2023-05-13T23:10:38.591Z,16.01
2023-05-13T23:13:08.115Z,16.01
2023-05-13T23:15:40.105Z,15.99
2023-05-13T23:18:09.228Z,15.94
2023-05-13T23:20:38.453Z,15.93
2023-05-13T23:23:08.325Z,15.89
2023-05-13T23:25:37.282Z,15.92
2023-05-13T23:28:06.425Z,15.86
2023-05-13T23:30:36.530Z,15.78
2023-05-13T23:33:05.465Z,15.75
2023-05-13T23:35:35.394Z,15.75
2023-05-13T23:38:04.961Z,15.81
2023-05-13T23:40:34.553Z,15.81
2023-05-13T23:43:04.046Z,15.76
2023-05-13T23:45:33.614Z,15.74
2023-05-13T23:48:02.918Z,15.76
2023-05-13T23:50:32.220Z,15.74
2023-05-13T23:53:01.691Z,15.72
2023-05-13T23:55:30.917Z,15.69
2023-05-13T23:57:59.782Z,15.69
